.
WxDataArchive / Data Records for 2016-05-25
2016-05-24 May 2016 2016-05-26

Data Records for Wednesday, 25 May 2016

Time	Temp	Chill	HIndex	Humid	Dewpt	 Wind 	HiWind	WindDir	Rain 	Barom
-----	----	-----	------	-----	-----	------	------	-------	-----	-----
00:00	65.3	65.3	65.3	51	46.7	0	0	---	0.00	30.003 
00:05	65.2	65.2	65.2	50	46.1	0	0	---	0.00	30.003 
00:10	65.0	65.0	65.0	51	46.4	0	0	---	0.00	30.003 
00:15	64.8	64.8	64.8	50	45.7	0	0	---	0.00	30.000 
00:20	64.8	64.8	64.8	50	45.7	0	0	---	0.00	30.000 
00:25	64.8	64.8	64.8	51	46.2	0	0	---	0.00	30.000 
00:30	64.7	64.7	64.7	52	46.7	0	0	---	0.00	29.999 
00:35	64.5	64.5	64.5	53	47.0	0	0	---	0.00	29.999 
00:40	64.5	64.5	64.5	54	47.5	0	0	---	0.00	29.999 
00:45	64.3	64.3	64.3	54	47.3	0	0	---	0.00	29.994 
00:50	64.2	64.2	64.2	54	47.2	0	0	---	0.00	29.994 
00:55	64.0	64.0	64.0	54	47.0	0	0	---	0.00	29.994 
01:00	63.9	63.9	63.9	54	46.9	0	0	---	0.00	29.990 
01:05	63.7	63.7	63.7	54	46.7	0	0	---	0.00	29.990 
01:10	63.7	63.7	63.7	55	47.2	0	0	---	0.00	29.990 
01:15	63.7	63.7	63.7	55	47.2	0	0	---	0.00	29.998 
01:20	63.9	63.9	63.9	55	47.4	0	0	---	0.00	29.998 
01:25	64.0	64.0	64.0	55	47.5	0	1	338	0.00	29.998 
01:30	64.3	64.3	64.3	55	47.8	0	0	---	0.00	29.997 
01:35	64.5	64.5	64.5	55	48.0	0	1	338	0.00	29.997 
01:40	64.8	64.8	64.8	55	48.2	0	0	---	0.00	29.997 
01:45	64.8	64.8	64.8	55	48.2	0	0	---	0.00	29.995 
01:50	64.8	64.8	64.8	55	48.2	0	0	---	0.00	29.995 
01:55	65.0	65.0	65.0	55	48.4	0	0	---	0.00	29.995 
02:00	65.0	65.0	65.0	55	48.4	0	0	---	0.00	29.994 
02:05	65.0	65.0	65.0	56	48.9	0	0	---	0.00	29.994 
02:10	64.8	64.8	64.8	56	48.7	0	0	---	0.00	29.994 
02:15	64.8	64.8	64.8	56	48.7	0	0	---	0.00	29.994 
02:20	64.7	64.7	64.7	57	49.1	0	0	---	0.00	29.994 
02:25	64.5	64.5	64.5	57	48.9	0	0	---	0.00	29.994 
02:30	64.3	64.3	64.3	58	49.2	0	0	---	0.00	29.995 
02:35	64.2	64.2	64.2	58	49.1	0	0	---	0.00	29.995 
02:40	64.0	64.0	64.0	58	48.9	0	0	---	0.00	29.995 
02:45	64.0	64.0	64.0	59	49.4	0	0	---	0.00	29.995 
02:50	63.9	63.9	63.9	59	49.3	0	0	---	0.00	29.995 
02:55	63.7	63.7	63.7	60	49.5	0	0	---	0.00	29.995 
03:00	63.5	63.5	63.5	60	49.4	0	0	---	0.00	29.991 
03:05	63.4	63.4	63.4	61	49.7	0	0	---	0.00	29.991 
03:10	63.2	63.2	63.2	62	50.0	0	0	---	0.00	29.991 
03:15	62.9	62.9	62.9	62	49.7	0	0	---	0.00	29.995 
03:20	62.9	62.9	62.9	62	49.7	0	0	---	0.00	29.995 
03:25	63.1	63.1	63.1	62	49.9	0	0	---	0.00	29.995 
03:30	63.2	63.2	63.2	62	50.0	0	0	---	0.00	29.998 
03:35	63.4	63.4	63.4	62	50.1	0	0	---	0.00	29.998 
03:40	63.4	63.4	63.4	62	50.1	0	0	---	0.00	29.998 
03:45	63.4	63.4	63.4	62	50.1	0	0	---	0.00	30.005 
03:50	63.2	63.2	63.2	62	50.0	0	0	---	0.00	30.005 
03:55	63.2	63.2	63.2	63	50.4	0	0	---	0.00	30.005 
04:00	63.1	63.1	63.1	63	50.3	0	0	---	0.00	30.006 
04:05	62.9	62.9	62.9	64	50.5	0	0	---	0.00	30.006 
04:10	62.9	62.9	62.9	64	50.5	0	0	---	0.00	30.006 
04:15	62.9	62.9	62.9	64	50.5	0	0	---	0.00	30.005 
04:20	62.9	62.9	62.9	64	50.5	0	0	---	0.00	30.005 
04:25	62.9	62.9	62.9	64	50.5	0	0	---	0.00	30.005 
04:30	63.1	63.1	63.1	64	50.7	0	0	---	0.00	30.008 
04:35	63.1	63.1	63.1	65	51.1	0	0	---	0.00	30.008 
04:40	62.9	62.9	62.9	65	50.9	0	0	---	0.00	30.008 
04:45	62.9	62.9	62.9	65	50.9	0	0	---	0.00	30.005 
04:50	62.7	62.7	62.7	65	50.8	0	0	---	0.00	30.005 
04:55	62.6	62.6	62.6	66	51.1	0	0	---	0.00	30.005 
05:00	62.6	62.6	62.6	66	51.1	0	0	---	0.00	30.007 
05:05	62.4	62.4	62.4	67	51.3	0	0	---	0.00	30.007 
05:10	62.3	62.3	62.3	67	51.2	0	0	---	0.00	30.007 
05:15	62.3	62.3	62.3	68	51.6	0	0	---	0.00	30.011 
05:20	62.1	62.1	62.1	68	51.4	0	0	---	0.00	30.011 
05:25	62.0	62.0	62.0	68	51.3	0	0	---	0.00	30.011 
05:30	62.0	62.0	62.0	69	51.7	0	0	---	0.00	30.014 
05:35	61.8	61.8	61.8	69	51.5	0	0	---	0.00	30.014 
05:40	61.8	61.8	61.8	70	51.9	0	0	---	0.00	30.014 
05:45	61.6	61.6	61.6	70	51.7	0	0	---	0.00	30.009 
05:50	61.6	61.6	61.6	70	51.7	0	0	---	0.00	30.009 
05:55	61.6	61.6	61.6	70	51.7	0	0	---	0.00	30.009 
06:00	61.6	61.6	61.6	71	52.1	0	0	---	0.00	30.013 
06:05	61.6	61.6	61.6	71	52.1	0	0	---	0.00	30.013 
06:10	61.5	61.5	61.5	72	52.4	0	0	---	0.00	30.013 
06:15	61.3	61.3	61.3	72	52.2	0	0	---	0.00	30.015 
06:20	61.2	61.2	61.2	72	52.1	0	0	---	0.00	30.015 
06:25	61.0	61.0	61.0	73	52.3	0	0	---	0.00	30.015 
06:30	60.7	60.7	60.7	74	52.4	0	0	---	0.00	30.016 
06:35	60.5	60.5	60.5	74	52.2	0	0	---	0.00	30.016 
06:40	60.4	60.4	60.4	75	52.4	0	0	---	0.00	30.016 
06:45	60.2	60.2	60.2	76	52.6	0	0	---	0.00	30.016 
06:50	60.1	60.1	60.1	76	52.5	0	0	---	0.00	30.016 
06:55	60.1	60.1	60.1	77	52.9	0	0	---	0.00	30.016 
07:00	59.9	59.9	59.9	78	53.0	0	0	---	0.00	30.016 
07:05	59.9	59.9	59.9	79	53.4	0	0	---	0.00	30.016 
07:10	59.9	59.9	59.9	79	53.4	0	0	---	0.00	30.016 
07:15	59.9	59.9	59.9	80	53.7	0	0	---	0.00	30.013 
07:20	60.1	60.1	60.1	80	53.9	0	0	---	0.00	30.013 
07:25	60.2	60.2	60.2	80	54.0	0	0	---	0.00	30.013 
07:30	60.7	60.7	60.7	79	54.1	0	0	---	0.00	30.011 
07:35	61.3	61.3	61.3	78	54.4	0	0	---	0.00	30.011 
07:40	62.3	62.3	62.3	75	54.3	0	0	---	0.00	30.011 
07:45	63.1	63.1	63.1	74	54.7	0	0	---	0.00	30.010 
07:50	63.9	63.9	63.9	73	55.1	0	0	---	0.00	30.010 
07:55	64.8	64.8	64.8	72	55.6	0	0	---	0.00	30.010 
08:00	65.5	65.5	65.5	70	55.4	0	0	---	0.00	30.017 
08:05	65.8	65.8	65.8	69	55.3	0	0	---	0.00	30.017 
08:10	66.1	66.1	66.1	69	55.6	0	0	---	0.00	30.017 
08:15	66.1	66.1	66.1	69	55.6	0	0	---	0.00	30.021 
08:20	66.4	66.4	66.4	69	55.9	0	0	---	0.00	30.021 
08:25	67.3	67.3	67.3	67	56.0	0	1	338	0.00	30.021 
08:30	67.9	67.9	67.9	66	56.1	0	1	338	0.00	30.020 
08:35	68.9	68.9	68.9	64	56.2	0	1	338	0.00	30.020 
08:40	69.9	69.9	69.9	62	56.3	0	1	338	0.00	30.020 
08:45	71.1	71.1	71.1	59	56.0	0	1	338	0.00	30.026 
08:50	72.0	72.0	72.0	57	55.9	0	2	22	0.00	30.026 
08:55	72.8	72.8	72.8	56	56.2	0	1	22	0.00	30.026 
09:00	73.5	73.5	73.5	57	57.3	0	1	22	0.00	30.028 
09:05	74.2	74.2	74.2	55	57.0	0	1	22	0.00	30.028 
09:10	74.7	74.7	74.7	56	57.9	0	0	---	0.00	30.028 
09:15	75.1	75.1	77.6	54	57.3	0	1	22	0.00	30.038 
09:20	74.9	74.9	74.9	54	57.1	0	1	22	0.00	30.038 
09:25	74.4	74.4	74.4	54	56.7	0	1	22	0.00	30.038 
09:30	74.2	74.2	74.2	54	56.5	0	1	22	0.00	30.044 
09:35	73.9	73.9	73.9	55	56.7	0	1	22	0.00	30.044 
09:40	73.7	73.7	73.7	56	57.0	0	1	22	0.00	30.044 
09:45	73.7	73.7	73.7	55	56.5	0	1	22	0.00	30.049 
09:50	73.7	73.7	73.7	56	57.0	0	1	68	0.00	30.049 
09:55	73.7	73.7	73.7	55	56.5	0	1	68	0.00	30.049 
10:00	73.7	73.7	73.7	56	57.0	0	1	68	0.00	30.049 
10:05	73.5	73.5	73.5	56	56.8	0	1	68	0.00	30.049 
10:10	73.5	73.5	73.5	58	57.8	0	1	68	0.00	30.049 
10:15	74.2	74.2	74.2	55	57.0	0	2	68	0.00	30.049 
10:20	75.1	75.1	77.6	54	57.3	0	2	68	0.00	30.049 
10:25	76.1	76.1	78.1	54	58.2	0	2	68	0.00	30.049 
10:30	76.5	76.5	78.4	54	58.6	1	5	90	0.00	30.033 
10:35	77.2	77.2	78.7	51	57.6	0	2	90	0.00	30.033 
10:40	77.7	77.7	79.0	50	57.6	0	3	22	0.00	30.033 
10:45	77.9	77.9	79.2	51	58.3	1	4	22	0.00	30.036 
10:50	78.3	78.3	79.5	51	58.7	0	2	90	0.00	30.036 
10:55	78.8	78.8	79.9	51	59.1	1	3	90	0.00	30.036 
11:00	78.8	78.8	79.8	50	58.6	1	3	90	0.00	30.031 
11:05	78.8	78.8	79.9	52	59.7	0	2	315	0.00	30.031 
11:10	79.2	79.2	80.1	49	58.4	1	3	68	0.00	30.031 
11:15	79.0	79.0	80.0	51	59.3	0	3	68	0.00	30.032 
11:20	78.6	78.6	79.6	49	57.8	1	3	270	0.00	30.032 
11:25	78.6	78.6	79.6	49	57.8	0	3	270	0.00	30.032 
11:30	79.0	79.0	80.1	52	59.8	0	3	68	0.00	30.031 
11:35	79.8	79.8	80.5	48	58.3	1	4	112	0.00	30.031 
11:40	80.5	80.5	81.2	49	59.6	0	2	112	0.00	30.031 
11:45	80.9	80.9	81.5	49	59.9	0	2	68	0.00	30.030 
11:50	80.9	80.9	81.5	49	59.9	0	1	68	0.00	30.030 
11:55	80.3	80.3	81.1	50	59.9	0	3	270	0.00	30.030 
12:00	80.5	80.5	81.3	50	60.1	0	4	270	0.00	30.031 
12:05	80.3	80.3	80.9	48	58.8	0	3	68	0.00	30.031 
12:10	80.3	80.3	81.1	50	59.9	0	3	248	0.00	30.031 
12:15	80.1	80.1	80.7	48	58.6	0	2	248	0.00	30.027 
12:20	80.3	80.3	81.0	49	59.4	0	2	248	0.00	30.027 
12:25	80.9	80.9	81.6	50	60.5	1	4	112	0.00	30.027 
12:30	81.1	81.1	81.5	47	58.9	1	3	112	0.00	30.020 
12:35	81.2	81.2	82.2	52	61.9	1	3	112	0.00	30.020 
12:40	81.2	81.2	81.5	46	58.4	1	5	90	0.00	30.020 
12:45	80.9	80.9	81.4	48	59.3	1	4	90	0.00	30.018 
12:50	80.7	80.7	81.1	47	58.6	1	6	90	0.00	30.018 
12:55	80.9	80.9	81.2	46	58.2	1	6	90	0.00	30.018 
13:00	81.2	81.2	81.3	45	57.8	0	2	90	0.00	30.016 
13:05	81.6	81.6	81.7	45	58.2	1	5	90	0.00	30.016 
13:10	81.6	81.6	81.6	44	57.5	1	3	90	0.00	30.016 
13:15	81.8	81.8	82.1	47	59.6	1	3	90	0.00	30.013 
13:20	82.2	82.2	82.1	44	58.1	1	3	90	0.00	30.013 
13:25	82.4	82.4	82.3	44	58.3	1	4	90	0.00	30.013 
13:30	82.6	82.6	82.7	45	59.1	1	3	135	0.00	30.010 
13:35	82.8	82.8	82.7	44	58.6	1	3	135	0.00	30.010 
13:40	82.8	82.8	82.7	44	58.6	1	5	68	0.00	30.010 
13:45	83.0	83.0	83.2	46	60.1	1	4	90	0.00	30.002 
13:50	83.2	83.2	83.0	43	58.3	2	6	90	0.00	30.002 
13:55	83.6	83.6	83.4	43	58.7	1	5	112	0.00	30.002 
14:00	83.8	83.8	83.6	43	58.9	1	5	112	0.00	29.998 
14:05	83.8	83.8	83.7	44	59.5	0	3	112	0.00	29.998 
14:10	83.6	83.6	83.4	43	58.7	2	6	90	0.00	29.998 
14:15	83.6	83.6	83.4	43	58.7	1	5	135	0.00	29.996 
14:20	83.8	83.8	83.9	45	60.2	1	5	112	0.00	29.996 
14:25	83.6	83.6	83.4	43	58.7	1	6	112	0.00	29.996 
14:30	84.0	84.0	84.0	44	59.7	1	4	112	0.00	29.995 
14:35	84.1	84.1	84.1	44	59.8	1	4	90	0.00	29.995 
14:40	84.1	84.1	83.6	41	57.8	1	4	90	0.00	29.995 
14:45	84.5	84.5	84.3	43	59.5	1	5	90	0.00	29.987 
14:50	84.7	84.7	84.6	43	59.7	1	4	90	0.00	29.987 
14:55	84.7	84.7	84.6	43	59.7	0	4	90	0.00	29.987 
15:00	84.3	84.3	84.1	43	59.3	1	5	112	0.00	29.982 
15:05	84.3	84.3	84.3	44	60.0	1	11	112	0.00	29.982 
15:10	84.3	84.3	84.1	43	59.3	0	1	112	0.00	29.982 
15:15	84.3	84.3	84.7	46	61.2	0	2	112	0.00	29.982 
15:20	84.5	84.5	84.1	42	58.9	1	4	112	0.00	29.982 
15:25	84.3	84.3	83.9	42	58.7	1	3	90	0.00	29.982 
15:30	83.8	83.8	83.6	43	58.9	0	4	90	0.00	29.978 
15:35	83.6	83.6	83.5	44	59.3	0	3	90	0.00	29.978 
15:40	84.0	84.0	83.8	43	59.1	1	5	112	0.00	29.978 
15:45	84.7	84.7	84.6	43	59.7	1	5	90	0.00	29.975 
15:50	85.1	85.1	84.8	42	59.4	0	3	270	0.00	29.975 
15:55	85.5	85.5	85.7	44	61.1	0	2	270	0.00	29.975 
16:00	85.9	85.9	85.3	40	58.7	1	6	90	0.00	29.965 
16:05	85.9	85.9	85.5	41	59.4	0	3	90	0.00	29.965 
16:10	85.9	85.9	85.3	40	58.7	0	3	90	0.00	29.965 
16:15	85.9	85.9	85.1	39	58.0	2	7	90	0.00	29.964 
16:20	86.1	86.1	85.6	40	58.9	0	3	90	0.00	29.964 
16:25	86.3	86.3	85.6	39	58.4	1	4	90	0.00	29.964 
16:30	86.5	86.5	85.8	39	58.6	0	2	90	0.00	29.957 
16:35	86.7	86.7	85.8	38	58.0	0	2	90	0.00	29.957 
16:40	86.7	86.7	85.6	37	57.3	1	4	90	0.00	29.957 
16:45	86.7	86.7	86.0	39	58.7	0	2	90	0.00	29.951 
16:50	87.2	87.2	86.4	38	58.5	0	3	90	0.00	29.951 
16:55	87.2	87.2	86.2	37	57.7	0	2	90	0.00	29.951 
17:00	87.4	87.4	86.9	39	59.4	0	1	90	0.00	29.949 
17:05	87.4	87.4	86.7	38	58.6	0	1	90	0.00	29.949 
17:10	87.2	87.2	86.6	39	59.2	0	1	90	0.00	29.949 
17:15	86.5	86.5	86.3	41	60.0	0	1	90	0.00	29.949 
17:20	86.1	86.1	85.8	41	59.6	0	1	90	0.00	29.949 
17:25	85.7	85.7	84.9	39	57.9	0	2	90	0.00	29.949 
17:30	85.5	85.5	84.9	40	58.4	0	2	90	0.00	29.945 
17:35	84.9	84.9	84.4	41	58.5	0	3	90	0.00	29.945 
17:40	85.1	85.1	84.8	42	59.4	0	6	90	0.00	29.945 
17:45	85.3	85.3	84.8	41	58.9	1	7	112	0.00	29.937 
17:50	85.5	85.5	84.7	39	57.7	0	2	112	0.00	29.937 
17:55	85.3	85.3	84.5	39	57.5	0	2	112	0.00	29.937 
18:00	85.3	85.3	84.8	41	58.9	0	2	112	0.00	29.924 
18:05	85.1	85.1	84.4	40	58.0	1	4	112	0.00	29.924 
18:10	85.1	85.1	84.3	39	57.3	0	1	112	0.00	29.924 
18:15	85.3	85.3	84.1	37	56.0	0	2	112	0.00	29.920 
18:20	85.1	85.1	84.1	38	56.6	0	1	112	0.00	29.920 
18:25	85.1	85.1	84.3	39	57.3	0	1	112	0.00	29.920 
18:30	84.9	84.9	84.0	39	57.1	0	1	112	0.00	29.909 
18:35	84.7	84.7	83.8	39	57.0	1	6	112	0.00	29.909 
18:40	84.5	84.5	83.6	39	56.8	0	1	90	0.00	29.909 
18:45	84.5	84.5	83.6	39	56.8	0	2	90	0.00	29.907 
18:50	84.5	84.5	83.8	40	57.5	0	2	90	0.00	29.907 
18:55	84.3	84.3	83.3	38	55.9	0	1	90	0.00	29.907 
19:00	84.1	84.1	83.1	38	55.7	0	0	---	0.00	29.905 
19:05	83.8	83.8	82.9	39	56.2	0	1	90	0.00	29.905 
19:10	83.6	83.6	82.9	40	56.7	0	2	90	0.00	29.905 
19:15	83.4	83.4	82.7	40	56.5	0	1	90	0.00	29.900 
19:20	83.4	83.4	82.9	41	57.2	0	2	90	0.00	29.900 
19:25	83.4	83.4	82.7	40	56.5	0	2	90	0.00	29.900 
19:30	83.4	83.4	83.0	42	57.9	0	1	90	0.00	29.901 
19:35	83.2	83.2	83.0	43	58.3	0	2	90	0.00	29.901 
19:40	83.0	83.0	82.9	44	58.8	0	2	90	0.00	29.901 
19:45	83.0	83.0	82.8	43	58.2	0	1	90	0.00	29.902 
19:50	82.8	82.8	82.7	44	58.6	0	2	90	0.00	29.902 
19:55	82.8	82.8	82.6	43	58.0	0	1	90	0.00	29.902 
20:00	82.6	82.6	82.5	44	58.4	0	1	90	0.00	29.903 
20:05	82.6	82.6	82.5	44	58.4	0	1	90	0.00	29.903 
20:10	82.6	82.6	82.5	44	58.4	1	9	90	0.00	29.903 
20:15	82.4	82.4	82.3	44	58.3	0	2	90	0.00	29.901 
20:20	82.4	82.4	82.3	44	58.3	0	2	90	0.00	29.901 
20:25	82.2	82.2	82.3	45	58.7	0	1	90	0.00	29.901 
20:30	81.8	81.8	81.9	45	58.4	0	1	90	0.00	29.910 
20:35	81.4	81.4	81.6	46	58.6	0	1	90	0.00	29.910 
20:40	81.2	81.2	81.5	46	58.4	0	0	---	0.00	29.910 
20:45	80.9	80.9	81.3	47	58.8	0	0	---	0.00	29.914 
20:50	80.3	80.3	80.9	48	58.8	0	0	---	0.00	29.914 
20:55	79.9	79.9	80.5	48	58.4	0	1	90	0.00	29.914 
21:00	79.8	79.8	80.5	49	58.9	0	1	90	0.00	29.914 
21:05	79.6	79.6	80.4	49	58.7	0	1	90	0.00	29.914 
21:10	79.2	79.2	80.1	50	58.9	0	0	---	0.00	29.914 
21:15	78.8	78.8	79.8	50	58.6	0	0	---	0.00	29.916 
21:20	78.6	78.6	79.7	51	58.9	0	0	---	0.00	29.916 
21:25	78.3	78.3	79.5	51	58.7	0	0	---	0.00	29.916 
21:30	78.1	78.1	79.4	51	58.5	0	0	---	0.00	29.916 
21:35	77.9	77.9	79.2	51	58.3	0	0	---	0.00	29.916 
21:40	77.9	77.9	79.3	52	58.8	0	0	---	0.00	29.916 
21:45	77.7	77.7	79.1	52	58.6	0	0	---	0.00	29.920 
21:50	77.6	77.6	79.0	52	58.6	0	0	---	0.00	29.920 
21:55	77.4	77.4	78.9	53	58.9	0	0	---	0.00	29.920 
22:00	77.2	77.2	78.8	54	59.2	0	0	---	0.00	29.928 
22:05	76.8	76.8	78.6	54	58.9	0	1	90	0.00	29.928 
22:10	76.8	76.8	78.6	54	58.9	0	1	90	0.00	29.928 
22:15	76.8	76.8	78.6	54	58.9	0	1	90	0.00	29.927 
22:20	77.0	77.0	78.7	54	59.1	0	2	90	0.00	29.927 
22:25	77.2	77.2	78.9	55	59.8	0	1	90	0.00	29.927 
22:30	77.2	77.2	78.9	55	59.8	0	2	90	0.00	29.929 
22:35	77.4	77.4	79.0	56	60.5	0	3	90	0.00	29.929 
22:40	77.4	77.4	79.1	57	61.0	0	3	90	0.00	29.929 
22:45	77.2	77.2	78.9	57	60.8	0	1	90	0.00	29.928 
22:50	77.2	77.2	78.9	58	61.3	0	2	90	0.00	29.928 
22:55	77.2	77.2	78.9	59	61.7	0	3	90	0.00	29.928 
23:00	77.2	77.2	78.9	59	61.7	0	3	90	0.00	29.931 
23:05	77.2	77.2	78.9	60	62.2	0	3	90	0.00	29.931 
23:10	77.2	77.2	78.9	60	62.2	0	2	90	0.00	29.931 
23:15	77.0	77.0	78.8	60	62.0	0	2	90	0.00	29.925 
23:20	77.0	77.0	78.8	61	62.5	0	1	90	0.00	29.925 
23:25	76.8	76.8	78.6	61	62.3	0	1	90	0.00	29.925 
23:30	76.7	76.7	78.5	61	62.2	0	2	90	0.00	29.924 
23:35	76.5	76.5	78.4	61	62.0	0	2	90	0.00	29.924 
23:40	76.5	76.5	78.4	61	62.0	0	2	90	0.00	29.924 
23:45	76.5	76.5	78.4	61	62.0	0	1	90	0.00	29.923 
23:50	76.5	76.5	78.4	61	62.0	0	2	90	0.00	29.923 
23:55	76.3	76.3	78.2	61	61.8	0	2	90	0.00	29.923 

CoCoRaHS
IN-AL-39
A2 Web Hosting
Creative Commons License
GoDaddy
search engine by freefind advanced

loaded 2018-11-13 22:18:48 • last modified 2010-11-18 10:43:29
Privacy PolicyDisclaimer
• wx.awcolley.com is powered by PmWiki v.2002016 •
• all content (unless otherwise noted) © 2018 A W Colley